Terminal Aerodrome Forecast
Issued by NWS

Home | Current Version | Previous Version | Text Only | Print | Product List | Glossary On
Versions: 1 2 3 4 5 6 7 8 9 10 11 12 13 14 15
000
FTUS43 KDTX 221100
TAFMBS
TAF
KMBS 221122Z 2212/2312 21009KT P6SM SKC
     FM221600 22014G22KT P6SM SCT200
     FM221700 23013G20KT P6SM FEW050 SCT250
     FM230100 24012KT P6SM SCT060 BKN100 PROB30 2302/2305 5SM TSRA
      BKN035 OVC060CB
     FM230600 32011KT P6SM OVC022=

USA.gov is the U.S. government's official web portal to all federal, state and local government web resources and services.